Van Nuys Airport Van Nuys US
ICAO: KVNY
IATA: VNY
Category: Medium
Scheduled Services: No

Elevation: 802 ft
TransAlt. 18000 ft.

Airport Communications:
SOCAL APP/DEP:120.4
ATIS:118.45
CLNC DEL:126.6
CTAF:119.3
GND:121.7
TWR:119
UNICOM:122.95

KVNY Zoom In..

If you have problems with the map follow the link
https://www.worldairports.se/pages/airport.php?
ICAO=KVNY

Runways:

(A) RW 16L length 4013 ft width 75 ft
---- / hdg 161

(B) RW 16R length 8001 ft width 150 ft
ILS 111.30 / hdg 161

(C) RW 34L length 8001 ft width 150 ft
---- / hdg 341

(D) RW 34R length 4013 ft width 75 ft
---- / hdg 341

Location; KVNY
Day. 23 / Time. 22.51 Zulu
* Altimeter: 30.02
* Temperature: 24° c. 75.2°f.
* Wind from: 340° Speed 11 kn.
Dewpoint: 03° c.
Visibility: 10 Statute Miles.
Clouds: Clear (automated report).

KVNY 232251Z 34011KT 10SM CLR 24/03 A3002 RMK AO2 SLP160 T02390028


Wind From 340°
Speed 11 kn.

 
 
jpsmedia worldairports.se 2020   terms of use